Terminal Aerodrome Forecast
Issued by NWS Milwaukee/Sullivan, WI

Home | Current Version | Previous Version | Text Only | Print | Product List | Glossary On
Versions: 1 2 3 4 5 6 7 8 9 10 11 12 13 14 15 16 17 18 19 20 21 22 23 24 25 26 27 28 29 30 31 32 33 34 35 36 37 38 39 40 41 42 43 44 45 46 47 48 49 50
000
FTUS43 KMKX 210729 AAA
TAFMSN
TAF AMD
KMSN 210729Z 2107/2206 00000KT 4SM BR OVC200
      TEMPO 2108/2110 1SM BR
     FM211000 00000KT 3SM BR BKN250
     FM211300 VRB03KT 6SM BR BKN150
     FM211600 14006KT P6SM VCSH SCT035 BKN120
     FM212100 14008KT P6SM SHRA VCTS SCT035CB BKN090
     FM220200 14007KT P6SM +SHRA VCTS SCT035CB OVC090=

USA.gov is the U.S. government's official web portal to all federal, state and local government web resources and services.